createdAt,value
2023-04-25T00:01:33.350Z,105.37
2023-04-25T00:04:00.338Z,105.69
2023-04-25T00:06:27.536Z,105.56
2023-04-25T00:08:54.988Z,105.21
2023-04-25T00:11:21.656Z,105.92
2023-04-25T00:13:50.773Z,107.83
2023-04-25T00:16:18.354Z,109.00
2023-04-25T00:18:47.320Z,110.05
2023-04-25T00:21:14.103Z,110.86
2023-04-25T00:23:40.992Z,111.54
2023-04-25T00:26:07.734Z,112.77
2023-04-25T00:28:34.688Z,112.93
2023-04-25T00:31:01.532Z,112.93
2023-04-25T00:33:28.339Z,113.86
2023-04-25T00:35:55.484Z,114.53
2023-04-25T00:38:22.206Z,115.12
2023-04-25T00:40:49.105Z,114.81
2023-04-25T00:43:16.181Z,114.93
2023-04-25T00:45:44.384Z,114.94
2023-04-25T00:48:11.526Z,115.28
2023-04-25T00:50:38.792Z,115.25
2023-04-25T00:53:05.893Z,114.76
2023-04-25T00:55:33.375Z,114.85
2023-04-25T00:58:00.316Z,114.33
2023-04-25T01:00:27.164Z,114.16
2023-04-25T01:02:54.186Z,113.49
2023-04-25T01:05:21.169Z,114.08
2023-04-25T01:07:48.265Z,113.74
2023-04-25T01:10:16.279Z,115.07
2023-04-25T01:12:43.293Z,115.04
2023-04-25T01:15:10.502Z,114.99
2023-04-25T01:17:37.964Z,114.25
2023-04-25T01:20:05.940Z,113.87
2023-04-25T01:22:33.475Z,113.49
2023-04-25T01:25:01.147Z,113.80
2023-04-25T01:27:28.734Z,113.97
2023-04-25T01:29:56.738Z,112.88
2023-04-25T01:32:24.942Z,112.61
2023-04-25T01:34:51.682Z,113.04
2023-04-25T01:37:18.818Z,112.70
2023-04-25T01:39:45.792Z,111.33
2023-04-25T01:42:14.381Z,111.98
2023-04-25T01:44:41.116Z,112.82
2023-04-25T01:47:07.971Z,112.69
2023-04-25T01:49:34.797Z,112.75
2023-04-25T01:52:01.627Z,113.61
2023-04-25T01:54:28.367Z,114.27
2023-04-25T01:56:58.516Z,114.64
2023-04-25T01:59:25.854Z,114.98
2023-04-25T02:01:52.869Z,115.49
2023-04-25T02:04:19.788Z,114.28
2023-04-25T02:06:46.853Z,114.45
2023-04-25T02:09:13.712Z,114.08
2023-04-25T02:11:40.593Z,114.26
2023-04-25T02:14:07.318Z,113.67
2023-04-25T02:16:34.113Z,112.70
2023-04-25T02:19:01.190Z,112.61
2023-04-25T02:21:28.033Z,112.44
2023-04-25T02:23:55.060Z,112.06
2023-04-25T02:26:22.045Z,110.33
2023-04-25T02:28:49.176Z,111.03
2023-04-25T02:31:15.980Z,111.26
2023-04-25T02:33:43.170Z,111.13
2023-04-25T02:36:10.209Z,108.62
2023-04-25T02:38:37.157Z,108.91
2023-04-25T02:41:03.848Z,107.21
2023-04-25T02:43:30.767Z,107.64
2023-04-25T02:45:57.541Z,107.34
2023-04-25T02:48:24.350Z,107.11
2023-04-25T02:50:52.055Z,105.51
2023-04-25T02:53:18.868Z,103.61
2023-04-25T02:55:45.739Z,102.43
2023-04-25T02:58:12.845Z,101.83
2023-04-25T03:00:39.512Z,102.06
2023-04-25T03:03:06.455Z,102.71
2023-04-25T03:05:33.192Z,101.13
2023-04-25T03:07:59.932Z,101.99
2023-04-25T03:10:26.801Z,102.53
2023-04-25T03:12:53.603Z,101.79
2023-04-25T03:15:20.867Z,101.04
2023-04-25T03:17:47.772Z,102.05
2023-04-25T03:20:14.533Z,100.91
2023-04-25T03:22:41.365Z,101.91
2023-04-25T03:25:08.713Z,102.34
2023-04-25T03:27:35.540Z,101.83
2023-04-25T03:30:02.224Z,102.63
2023-04-25T03:32:28.921Z,101.41
2023-04-25T03:34:56.082Z,102.58
2023-04-25T03:37:23.022Z,102.79
2023-04-25T03:39:49.949Z,101.03
2023-04-25T03:42:16.764Z,99.63
2023-04-25T03:44:43.563Z,100.43
2023-04-25T03:47:10.350Z,99.78
2023-04-25T03:49:37.802Z,99.07
2023-04-25T03:52:04.949Z,98.15
2023-04-25T03:54:31.837Z,98.41
2023-04-25T03:56:58.604Z,98.14
2023-04-25T03:59:26.093Z,98.06
2023-04-25T04:01:53.409Z,96.87
2023-04-25T04:04:20.610Z,96.81
2023-04-25T04:06:47.848Z,96.78
2023-04-25T04:09:14.698Z,96.38
2023-04-25T04:11:41.470Z,96.74
2023-04-25T04:14:08.929Z,97.06
2023-04-25T04:16:35.852Z,96.60
2023-04-25T04:19:03.223Z,95.98
2023-04-25T04:21:30.081Z,96.51
2023-04-25T04:23:58.722Z,97.26
2023-04-25T04:26:27.072Z,96.29
2023-04-25T04:28:55.383Z,96.40
2023-04-25T04:31:23.008Z,95.42
2023-04-25T04:33:50.019Z,95.94
2023-04-25T04:36:16.911Z,95.93
2023-04-25T04:38:43.848Z,95.33
2023-04-25T04:41:11.066Z,94.91
2023-04-25T04:43:37.850Z,95.04
2023-04-25T04:46:05.194Z,93.28
2023-04-25T04:48:35.352Z,94.81
2023-04-25T04:51:02.384Z,96.55
2023-04-25T04:53:29.151Z,94.91
2023-04-25T04:55:55.890Z,94.53
2023-04-25T04:58:22.676Z,94.10
2023-04-25T05:00:49.600Z,95.04
2023-04-25T05:03:16.843Z,93.98
2023-04-25T05:05:44.146Z,94.17
2023-04-25T05:08:10.934Z,92.98
2023-04-25T05:10:37.663Z,93.12
2023-04-25T05:13:04.406Z,92.26
2023-04-25T05:15:31.153Z,91.95
2023-04-25T05:17:57.993Z,90.03
2023-04-25T05:20:24.843Z,88.87
2023-04-25T05:22:51.755Z,87.40
2023-04-25T05:25:18.691Z,87.44
2023-04-25T05:27:45.461Z,87.02
2023-04-25T05:30:12.414Z,87.37
2023-04-25T05:32:39.130Z,86.48
2023-04-25T05:35:07.806Z,87.25
2023-04-25T05:37:34.640Z,87.15
2023-04-25T05:40:01.466Z,87.53
2023-04-25T05:42:28.158Z,86.48
2023-04-25T05:44:54.924Z,87.38
2023-04-25T05:47:21.695Z,88.96
2023-04-25T05:49:48.433Z,84.61
2023-04-25T05:52:16.382Z,87.16
2023-04-25T05:54:43.256Z,87.12
2023-04-25T05:57:09.938Z,88.68
2023-04-25T05:59:36.844Z,88.78
2023-04-25T06:02:03.760Z,89.18
2023-04-25T06:04:30.807Z,85.52
2023-04-25T06:06:57.808Z,84.52
2023-04-25T06:09:24.628Z,82.07
2023-04-25T06:11:51.506Z,82.25
2023-04-25T06:14:18.615Z,79.51
2023-04-25T06:16:45.413Z,76.83
2023-04-25T06:19:12.258Z,74.14
2023-04-25T06:21:38.920Z,70.05
2023-04-25T06:24:06.039Z,64.08
2023-04-25T06:26:32.796Z,65.14
2023-04-25T06:28:59.576Z,61.76
2023-04-25T06:31:26.424Z,61.02
2023-04-25T06:33:55.678Z,65.18
2023-04-25T06:36:26.854Z,70.02
2023-04-25T06:38:53.694Z,69.49
2023-04-25T06:41:20.928Z,72.20
2023-04-25T06:43:47.767Z,73.67
2023-04-25T06:46:14.599Z,73.12
2023-04-25T06:48:41.474Z,72.13
2023-04-25T06:51:08.229Z,69.58
2023-04-25T06:53:34.992Z,72.95
2023-04-25T06:56:01.714Z,71.58
2023-04-25T06:58:28.470Z,72.02
2023-04-25T07:00:55.496Z,72.87
2023-04-25T07:03:22.587Z,69.46
2023-04-25T07:05:49.738Z,70.21
2023-04-25T07:08:16.625Z,70.97
2023-04-25T07:10:43.719Z,69.78
2023-04-25T07:13:10.572Z,69.55
2023-04-25T07:15:37.544Z,71.22
2023-04-25T07:18:04.582Z,63.65
2023-04-25T07:20:32.029Z,64.79
2023-04-25T07:22:58.779Z,64.16
2023-04-25T07:25:25.956Z,61.70
2023-04-25T07:27:52.835Z,61.33
2023-04-25T07:30:19.635Z,62.21
2023-04-25T07:32:46.540Z,61.76
2023-04-25T07:35:13.381Z,62.69
2023-04-25T07:37:40.388Z,60.12
2023-04-25T07:40:08.851Z,60.77
2023-04-25T07:42:35.773Z,60.44
2023-04-25T07:45:02.720Z,60.86
2023-04-25T07:47:29.501Z,60.52
2023-04-25T07:49:57.206Z,59.88
2023-04-25T07:52:24.024Z,59.73
2023-04-25T07:54:50.968Z,59.38
2023-04-25T07:57:18.140Z,56.74
2023-04-25T07:59:44.959Z,57.03
2023-04-25T08:02:11.839Z,55.00
2023-04-25T08:04:38.808Z,57.07
2023-04-25T08:07:05.820Z,54.20
2023-04-25T08:09:35.685Z,57.55
2023-04-25T08:12:03.132Z,55.26
2023-04-25T08:14:36.474Z,55.22
2023-04-25T08:17:04.680Z,57.98
2023-04-25T08:19:31.899Z,56.58
2023-04-25T08:21:58.888Z,55.87
2023-04-25T08:24:25.831Z,54.16
2023-04-25T08:26:52.884Z,54.25
2023-04-25T08:29:19.614Z,52.48
2023-04-25T08:31:46.571Z,51.56
2023-04-25T08:34:13.583Z,53.56
2023-04-25T08:36:40.535Z,47.60
2023-04-25T08:39:08.027Z,46.44
2023-04-25T08:41:35.184Z,46.10
2023-04-25T08:44:03.918Z,44.54
2023-04-25T08:46:32.412Z,45.37
2023-04-25T08:49:03.258Z,46.37
2023-04-25T08:51:33.455Z,45.72
2023-04-25T08:54:27.961Z,51.29
2023-04-25T08:57:02.767Z,49.27
2023-04-25T08:59:30.294Z,49.11
2023-04-25T09:01:57.839Z,51.08
2023-04-25T09:04:24.767Z,51.18
2023-04-25T09:06:51.837Z,49.44
2023-04-25T09:09:19.195Z,51.61
2023-04-25T09:11:45.964Z,53.56
2023-04-25T09:14:23.616Z,55.48
2023-04-25T09:16:56.395Z,55.14
2023-04-25T09:19:38.249Z,56.93
2023-04-25T09:22:06.352Z,53.49
2023-04-25T09:24:39.321Z,54.68
2023-04-25T09:27:13.580Z,56.57
2023-04-25T09:29:42.101Z,57.94
2023-04-25T09:32:23.594Z,56.26
2023-04-25T09:34:58.125Z,58.31
2023-04-25T09:37:27.423Z,58.35
2023-04-25T09:39:56.420Z,59.83
2023-04-25T09:42:25.258Z,62.34
2023-04-25T09:44:56.262Z,64.85
2023-04-25T09:47:26.404Z,66.01
2023-04-25T09:49:54.670Z,66.11
2023-04-25T09:52:25.315Z,63.79
2023-04-25T09:54:53.880Z,66.59
2023-04-25T09:57:22.954Z,67.24
2023-04-25T09:59:56.952Z,69.04
2023-04-25T10:02:28.253Z,69.94
2023-04-25T10:04:56.660Z,63.90
2023-04-25T10:07:27.311Z,64.59
2023-04-25T10:10:00.926Z,60.70
2023-04-25T10:12:27.944Z,61.73
2023-04-25T10:14:55.821Z,60.35
2023-04-25T10:17:22.788Z,58.90
2023-04-25T10:19:50.055Z,57.22
2023-04-25T10:22:29.991Z,55.64
2023-04-25T10:24:57.770Z,54.04
2023-04-25T10:27:24.637Z,49.74
2023-04-25T10:30:05.827Z,47.77
2023-04-25T10:32:35.900Z,46.19
2023-04-25T10:35:24.782Z,46.35
2023-04-25T10:38:11.444Z,47.31
2023-04-25T10:40:38.231Z,49.52
2023-04-25T10:43:38.602Z,50.49
2023-04-25T10:46:24.841Z,53.08
2023-04-25T10:48:56.544Z,51.34
2023-04-25T10:51:23.263Z,53.63
2023-04-25T10:53:56.408Z,53.97
2023-04-25T10:56:26.422Z,52.81
2023-04-25T10:59:04.014Z,53.84
2023-04-25T11:01:45.586Z,54.76
2023-04-25T11:04:23.762Z,55.65
2023-04-25T11:07:07.779Z,58.24
2023-04-25T11:09:41.949Z,55.62
2023-04-25T11:12:10.521Z,55.87
2023-04-25T11:14:37.468Z,55.13
2023-04-25T11:17:04.518Z,55.38
2023-04-25T11:19:31.558Z,53.96
2023-04-25T11:21:59.532Z,55.05
2023-04-25T11:24:35.539Z,53.75
2023-04-25T11:27:03.791Z,52.72
2023-04-25T11:29:31.954Z,49.80
2023-04-25T11:31:59.280Z,49.80
2023-04-25T11:34:26.999Z,52.44
2023-04-25T11:36:54.535Z,53.25
2023-04-25T11:39:21.666Z,50.65
2023-04-25T11:41:48.547Z,51.87
2023-04-25T11:44:19.151Z,51.91
2023-04-25T11:46:46.927Z,52.22
2023-04-25T11:49:14.654Z,52.94
2023-04-25T11:51:42.338Z,52.81
2023-04-25T11:54:09.125Z,53.34
2023-04-25T11:56:36.037Z,53.88
2023-04-25T11:59:07.736Z,49.92
2023-04-25T12:01:39.710Z,51.27
2023-04-25T12:04:17.500Z,53.05
2023-04-25T12:06:45.180Z,55.00
2023-04-25T12:09:14.326Z,54.25
2023-04-25T12:11:57.701Z,53.94
2023-04-25T12:14:30.027Z,54.70
2023-04-25T12:17:02.087Z,55.45
2023-04-25T12:19:37.372Z,57.08
2023-04-25T12:22:04.927Z,56.21
2023-04-25T12:24:38.642Z,56.99
2023-04-25T12:27:09.363Z,57.60
2023-04-25T12:29:48.628Z,60.22
2023-04-25T12:32:16.811Z,61.28
2023-04-25T12:34:43.744Z,61.92
2023-04-25T12:37:10.676Z,61.27
2023-04-25T12:39:37.712Z,62.87
2023-04-25T12:42:06.216Z,62.69
2023-04-25T12:44:35.964Z,60.51
2023-04-25T12:47:04.352Z,61.26
2023-04-25T12:49:31.473Z,61.56
2023-04-25T12:51:58.666Z,61.47
2023-04-25T12:54:26.570Z,59.73
2023-04-25T12:56:53.646Z,57.00
2023-04-25T12:59:21.583Z,54.14
2023-04-25T13:01:48.658Z,53.27
2023-04-25T13:04:16.141Z,52.86
2023-04-25T13:06:43.439Z,51.99
2023-04-25T13:09:10.574Z,49.02
2023-04-25T13:11:37.549Z,48.88
2023-04-25T13:14:04.502Z,47.34
2023-04-25T13:16:31.519Z,49.24
2023-04-25T13:18:59.254Z,45.57
2023-04-25T13:21:26.563Z,43.68
2023-04-25T13:23:53.962Z,44.33
2023-04-25T13:26:21.277Z,45.36
2023-04-25T13:28:48.122Z,48.10
2023-04-25T13:31:14.909Z,48.24
2023-04-25T13:33:41.619Z,50.47
2023-04-25T13:36:08.455Z,50.78
2023-04-25T13:38:35.332Z,50.18
2023-04-25T13:41:02.322Z,51.55
2023-04-25T13:43:29.192Z,52.88
2023-04-25T13:45:56.393Z,55.79
2023-04-25T13:48:25.559Z,57.20
2023-04-25T13:50:52.303Z,58.77
2023-04-25T13:53:19.039Z,63.67
2023-04-25T13:55:45.937Z,70.93
2023-04-25T13:58:12.755Z,74.89
2023-04-25T14:00:40.885Z,78.27
2023-04-25T14:03:10.775Z,79.30
2023-04-25T14:05:42.116Z,78.21
2023-04-25T14:08:10.828Z,78.53
2023-04-25T14:10:38.449Z,79.17
2023-04-25T14:13:06.988Z,79.62
2023-04-25T14:15:35.561Z,82.22
2023-04-25T14:18:03.094Z,81.35
2023-04-25T14:20:30.002Z,75.25
2023-04-25T14:22:58.178Z,77.29
2023-04-25T14:25:25.593Z,72.10
2023-04-25T14:27:52.948Z,70.61
2023-04-25T14:30:20.791Z,67.66
2023-04-25T14:32:49.581Z,65.96
2023-04-25T14:35:16.867Z,65.60
2023-04-25T14:37:43.749Z,59.65
2023-04-25T14:40:11.768Z,58.22
2023-04-25T14:42:38.849Z,56.32
2023-04-25T14:45:08.408Z,55.20
2023-04-25T14:47:38.566Z,54.41
2023-04-25T14:50:06.932Z,55.91
2023-04-25T14:52:33.727Z,53.95
2023-04-25T14:55:06.133Z,52.43
2023-04-25T14:57:34.275Z,51.62
2023-04-25T15:00:01.761Z,51.08
2023-04-25T15:02:29.408Z,52.62
2023-04-25T15:04:59.214Z,52.37
2023-04-25T15:07:26.817Z,55.46
2023-04-25T15:09:54.375Z,57.46
2023-04-25T15:12:21.490Z,55.65
2023-04-25T15:14:48.239Z,54.69
2023-04-25T15:17:15.897Z,55.23
2023-04-25T15:19:42.870Z,53.49
2023-04-25T15:22:09.881Z,50.76
2023-04-25T15:24:36.783Z,52.36
2023-04-25T15:27:05.488Z,51.58
2023-04-25T15:29:32.521Z,50.63
2023-04-25T15:31:59.539Z,50.40
2023-04-25T15:34:26.762Z,51.17
2023-04-25T15:36:53.512Z,50.14
2023-04-25T15:39:20.453Z,47.05
2023-04-25T15:41:48.355Z,43.17
2023-04-25T15:44:15.204Z,42.87
2023-04-25T15:46:41.913Z,43.36
2023-04-25T15:49:08.771Z,45.48
2023-04-25T15:51:35.817Z,44.06
2023-04-25T15:54:02.756Z,46.12
2023-04-25T15:56:29.784Z,48.12
2023-04-25T15:58:56.655Z,52.37
2023-04-25T16:01:26.020Z,52.69
2023-04-25T16:03:53.547Z,54.26
2023-04-25T16:06:20.663Z,56.18
2023-04-25T16:08:47.582Z,57.92
2023-04-25T16:11:14.991Z,58.42
2023-04-25T16:13:41.736Z,59.77
2023-04-25T16:16:08.929Z,58.68
2023-04-25T16:18:36.044Z,59.80
2023-04-25T16:21:03.747Z,62.06
2023-04-25T16:23:31.321Z,61.22
2023-04-25T16:25:58.212Z,63.13
2023-04-25T16:28:24.926Z,61.83
2023-04-25T16:30:51.761Z,61.34
2023-04-25T16:33:18.869Z,62.54
2023-04-25T16:35:46.043Z,59.98
2023-04-25T16:38:12.741Z,60.41
2023-04-25T16:40:39.450Z,59.99
2023-04-25T16:43:06.685Z,60.53
2023-04-25T16:45:33.574Z,64.33
2023-04-25T16:48:00.398Z,63.05
2023-04-25T16:50:27.310Z,62.21
2023-04-25T16:52:54.589Z,62.28
2023-04-25T16:55:21.504Z,61.65
2023-04-25T16:57:48.316Z,61.25
2023-04-25T17:00:15.902Z,61.52
2023-04-25T17:02:42.865Z,61.60
2023-04-25T17:05:10.490Z,62.05
2023-04-25T17:07:37.503Z,61.83
2023-04-25T17:10:04.944Z,63.31
2023-04-25T17:12:32.014Z,65.60
2023-04-25T17:15:00.420Z,62.48
2023-04-25T17:17:27.911Z,62.78
2023-04-25T17:19:55.099Z,63.55
2023-04-25T17:22:22.391Z,62.64
2023-04-25T17:24:49.397Z,66.67
2023-04-25T17:27:16.260Z,67.80
2023-04-25T17:29:43.264Z,64.87
2023-04-25T17:32:10.312Z,67.42
2023-04-25T17:34:40.158Z,66.85
2023-04-25T17:37:09.749Z,68.23
2023-04-25T17:39:36.942Z,67.76
2023-04-25T17:42:03.905Z,69.42
2023-04-25T17:44:30.609Z,67.86
2023-04-25T17:46:57.445Z,67.97
2023-04-25T17:49:24.366Z,69.68
2023-04-25T17:51:51.133Z,68.78
2023-04-25T17:54:18.421Z,69.61
2023-04-25T17:56:45.178Z,69.00
2023-04-25T17:59:11.916Z,68.41
2023-04-25T18:01:39.223Z,68.56
2023-04-25T18:04:06.430Z,68.64
2023-04-25T18:06:33.550Z,68.23
2023-04-25T18:09:01.983Z,68.13
2023-04-25T18:11:29.670Z,68.08
2023-04-25T18:13:56.378Z,66.27
2023-04-25T18:16:23.275Z,67.13
2023-04-25T18:18:53.613Z,67.82
2023-04-25T18:21:21.266Z,66.22
2023-04-25T18:23:48.034Z,69.17
2023-04-25T18:26:15.994Z,65.91
2023-04-25T18:28:42.756Z,68.81
2023-04-25T18:31:09.573Z,68.91
2023-04-25T18:33:36.493Z,70.76
2023-04-25T18:36:03.307Z,71.88
2023-04-25T18:41:10.593Z,74.40
2023-04-25T18:43:44.372Z,71.61
2023-04-25T18:46:11.465Z,72.19
2023-04-25T18:48:38.185Z,70.50
2023-04-25T18:51:05.677Z,71.98
2023-04-25T18:53:32.706Z,73.13
2023-04-25T18:55:59.479Z,74.91
2023-04-25T18:58:28.237Z,73.93
2023-04-25T19:00:55.458Z,74.28
2023-04-25T19:03:23.027Z,74.88
2023-04-25T19:05:50.075Z,77.92
2023-04-25T19:08:17.109Z,75.61
2023-04-25T19:10:45.276Z,75.81
2023-04-25T19:13:12.859Z,78.53
2023-04-25T19:15:39.871Z,82.42
2023-04-25T19:18:06.748Z,85.09
2023-04-25T19:20:34.169Z,88.00
2023-04-25T19:23:01.172Z,90.12
2023-04-25T19:25:28.056Z,91.04
2023-04-25T19:27:54.829Z,92.79
2023-04-25T19:30:21.670Z,94.23
2023-04-25T19:32:48.897Z,94.81
2023-04-25T19:35:15.739Z,95.45
2023-04-25T19:37:46.648Z,96.13
2023-04-25T19:40:14.895Z,95.90
2023-04-25T19:42:41.926Z,95.60
2023-04-25T19:45:09.306Z,95.47
2023-04-25T19:47:38.960Z,94.87
2023-04-25T19:50:07.739Z,95.40
2023-04-25T19:52:38.719Z,92.87
2023-04-25T19:55:06.133Z,92.65
2023-04-25T19:57:34.060Z,92.13
2023-04-25T20:00:02.016Z,91.59
2023-04-25T20:02:28.872Z,91.10
2023-04-25T20:04:56.358Z,91.97
2023-04-25T20:07:23.624Z,91.02
2023-04-25T20:09:50.655Z,91.49
2023-04-25T20:12:18.103Z,90.37
2023-04-25T20:14:45.078Z,91.09
2023-04-25T20:17:12.066Z,91.63
2023-04-25T20:19:39.363Z,92.59
2023-04-25T20:22:06.344Z,91.12
2023-04-25T20:24:33.179Z,90.78
2023-04-25T20:27:00.111Z,91.28
2023-04-25T20:29:27.174Z,90.15
2023-04-25T20:31:55.199Z,90.54
2023-04-25T20:34:22.525Z,90.66
2023-04-25T20:36:49.216Z,90.73
2023-04-25T20:39:15.984Z,90.28
2023-04-25T20:41:44.692Z,91.05
2023-04-25T20:44:12.455Z,90.41
2023-04-25T20:46:39.807Z,90.99
2023-04-25T20:49:06.495Z,91.93
2023-04-25T20:51:34.982Z,91.86
2023-04-25T20:54:04.376Z,92.49
2023-04-25T20:56:31.301Z,93.22
2023-04-25T20:58:58.303Z,93.24
2023-04-25T21:01:25.414Z,93.90
2023-04-25T21:03:52.902Z,93.60
2023-04-25T21:06:20.400Z,93.90
2023-04-25T21:08:48.474Z,94.00
2023-04-25T21:11:15.302Z,93.84
2023-04-25T21:13:42.733Z,93.60
2023-04-25T21:16:09.493Z,94.32
2023-04-25T21:18:36.238Z,94.69
2023-04-25T21:21:04.294Z,93.39
2023-04-25T21:23:31.804Z,93.55
2023-04-25T21:25:58.668Z,94.04
2023-04-25T21:28:25.548Z,94.94
2023-04-25T21:30:52.463Z,94.38
2023-04-25T21:33:19.474Z,94.12
2023-04-25T21:35:46.322Z,93.64
2023-04-25T21:38:14.591Z,94.79
2023-04-25T21:40:41.408Z,93.91
2023-04-25T21:43:08.151Z,94.15
2023-04-25T21:45:44.495Z,93.94
2023-04-25T21:48:21.927Z,93.72
2023-04-25T21:50:48.674Z,93.31
2023-04-25T21:53:15.914Z,94.72
2023-04-25T21:55:42.544Z,93.36
2023-04-25T21:58:09.356Z,92.80
2023-04-25T22:00:36.181Z,93.71
2023-04-25T22:03:03.226Z,92.03
2023-04-25T22:05:30.145Z,91.53
2023-04-25T22:07:57.544Z,91.43
2023-04-25T22:10:25.189Z,91.71
2023-04-25T22:12:52.952Z,91.67
2023-04-25T22:15:21.727Z,92.24
2023-04-25T22:17:48.744Z,92.08
2023-04-25T22:20:15.706Z,92.14
2023-04-25T22:22:45.560Z,92.59
2023-04-25T22:25:12.531Z,93.16
2023-04-25T22:27:44.017Z,94.80
2023-04-25T22:30:14.737Z,91.79
2023-04-25T22:32:42.177Z,91.65
2023-04-25T22:35:10.523Z,92.66
2023-04-25T22:37:37.687Z,92.60
2023-04-25T22:40:11.538Z,93.53
2023-04-25T22:42:43.570Z,93.24
2023-04-25T22:45:10.889Z,93.03
2023-04-25T22:47:38.900Z,92.34
2023-04-25T22:50:08.564Z,92.94
2023-04-25T22:52:35.344Z,93.34
2023-04-25T22:55:03.158Z,93.84
2023-04-25T22:57:30.503Z,93.43
2023-04-25T22:59:57.514Z,93.68
2023-04-25T23:02:27.996Z,94.71
2023-04-25T23:04:55.089Z,94.04
2023-04-25T23:07:21.932Z,94.75
2023-04-25T23:09:49.329Z,94.84
2023-04-25T23:12:19.133Z,94.50
2023-04-25T23:14:50.874Z,94.68
2023-04-25T23:17:17.640Z,94.33
2023-04-25T23:19:45.280Z,94.54
2023-04-25T23:22:12.586Z,95.73
2023-04-25T23:24:39.629Z,94.96
2023-04-25T23:27:06.836Z,94.25
2023-04-25T23:29:34.636Z,93.47
2023-04-25T23:32:01.765Z,93.49
2023-04-25T23:34:32.420Z,94.52
2023-04-25T23:37:04.380Z,94.27
2023-04-25T23:39:31.644Z,95.72
2023-04-25T23:41:58.448Z,94.85
2023-04-25T23:44:25.485Z,94.91
2023-04-25T23:46:52.530Z,94.65
2023-04-25T23:49:19.304Z,95.07
2023-04-25T23:51:46.434Z,95.33
2023-04-25T23:54:13.452Z,95.93
2023-04-25T23:56:40.233Z,95.89
2023-04-25T23:59:07.034Z,96.10
